Malaysia Virtual Airlines Airport Information Service

Tawau Airport

ICAO: WBKW Country: Malaysia
Latitude: 4.31333 Longitude: 118.122
Latest Arrival : MH2137 (WBKK-WBKW) Latest Departure : MH2122 (WBKW-WBKK)


WX CaptureLIVE
Data provided by noaa.gov | Fetched at 08:01:27

METAR : WBKW 160700Z VRB02KT 8000 -TSRA FEW016CB 27/26 Q1008

TAF : WBKW 160532Z 1606/1706 16008KT 9999 FEW017 TEMPO 1606/1610 5000 TSRA FEW016CB SCT030


Runway Data for WBKW
Data provided by openaviationdata.com

Runway ID Mag Var Hdg Length Elevation Surface ILS Freq ILS Id ILS Slope
6 0 57° 8829 ft 57 ft Asphalt -- -- --
24 0 237° 8829 ft 57 ft Asphalt 111.3 ITWU 3

Tawau Airport, Malaysia
Use only for reference purposes



Not for navigational purposes.